Time;durP1;ratioP1;P1;durP2;ratioP2;P2;SDS_P1;SDS_P2;PMS_P1;PMS_P2;Temp;Humidity;BMP_temperature;BMP_pressure;BME280_temperature;BME280_humidity;BME280_pressure;Samples;Min_cycle;Max_cycle;Signal;HPM_P1;HPM_P2
2021/12/19 00:00:45;;;;;;;7.30;2.50;;;8.40;99.90;;;;;;5068156;28;20392;-78
2021/12/19 00:08:52;;;;;;;8.40;2.13;;;7.30;99.90;;;;;;5055561;28;20095;-76
2021/12/19 00:11:23;;;;;;;5.68;1.92;;;7.40;99.90;;;;;;5054769;28;20098;-77
2021/12/19 00:13:49;;;;;;;5.90;1.90;;;7.40;99.90;;;;;;5055518;28;20036;-79
2021/12/19 00:16:15;;;;;;;9.05;2.63;;;8.10;99.90;;;;;;5055559;28;20136;-78
2021/12/19 00:18:43;;;;;;;6.97;1.58;;;7.30;99.90;;;;;;5055245;28;20128;-79
2021/12/19 00:21:11;;;;;;;6.22;1.80;;;7.40;99.90;;;;;;5055544;28;20052;-79
2021/12/19 00:23:38;;;;;;;5.47;1.80;;;7.40;99.90;;;;;;5055298;28;20048;-79
2021/12/19 00:26:03;;;;;;;6.97;2.53;;;7.30;99.90;;;;;;5036798;28;20127;-78
2021/12/19 00:28:29;;;;;;;7.85;2.15;;;7.30;99.90;;;;;;5036875;28;20120;-79
2021/12/19 00:30:55;;;;;;;10.02;2.42;;;7.70;99.90;;;;;;5055023;28;20075;-79
2021/12/19 00:33:21;;;;;;;7.80;2.35;;;7.30;99.90;;;;;;5037046;28;20045;-79
2021/12/19 00:35:47;;;;;;;8.32;2.33;;;7.90;99.90;;;;;;5055223;28;20044;-79
2021/12/19 00:38:13;;;;;;;8.85;2.58;;;7.30;99.90;;;;;;5055121;28;20069;-79
2021/12/19 00:40:39;;;;;;;9.30;2.65;;;7.60;99.90;;;;;;5036809;28;20464;-79
2021/12/19 00:43:09;;;;;;;8.90;2.60;;;7.30;99.90;;;;;;5035947;28;20063;-80
2021/12/19 00:45:38;;;;;;;10.90;3.10;;;7.30;99.90;;;;;;5055165;28;20439;-79
2021/12/19 00:48:05;;;;;;;9.98;3.22;;;7.30;99.90;;;;;;5054873;28;20060;-78
2021/12/19 00:50:32;;;;;;;10.20;3.42;;;7.60;99.90;;;;;;5054855;28;20045;-79
2021/12/19 00:52:59;;;;;;;11.57;3.53;;;7.30;99.90;;;;;;5035903;28;20082;-78
2021/12/19 00:55:27;;;;;;;9.75;3.85;;;7.30;99.90;;;;;;5036927;28;20049;-79
2021/12/19 00:57:54;;;;;;;10.80;4.53;;;7.30;99.90;;;;;;5054152;28;20037;-80
2021/12/19 01:00:23;;;;;;;12.85;4.30;;;7.30;99.90;;;;;;5036397;28;20048;-79
2021/12/19 01:02:54;;;;;;;14.50;4.82;;;7.40;99.90;;;;;;5054666;28;20094;-79
2021/12/19 01:05:20;;;;;;;14.40;5.18;;;8.30;99.90;;;;;;5054224;28;20548;-79
2021/12/19 01:07:46;;;;;;;12.82;5.70;;;7.40;99.90;;;;;;5036474;28;20138;-79
2021/12/19 01:10:12;;;;;;;15.90;6.57;;;7.40;99.90;;;;;;5054284;28;20128;-79
2021/12/19 01:12:38;;;;;;;13.52;5.82;;;7.40;99.90;;;;;;5054474;28;20040;-80
2021/12/19 01:15:11;;;;;;;15.85;6.13;;;7.40;99.90;;;;;;5053636;28;20087;-79
2021/12/19 01:17:37;;;;;;;17.38;6.88;;;7.50;99.90;;;;;;5053869;28;20123;-80
2021/12/19 01:20:06;;;;;;;18.90;7.22;;;7.50;99.90;;;;;;5054253;28;20040;-79
2021/12/19 01:22:32;;;;;;;18.38;7.18;;;7.50;99.90;;;;;;5054195;28;20440;-79
2021/12/19 01:24:57;;;;;;;17.98;7.10;;;7.50;99.90;;;;;;5054231;28;20037;-80
2021/12/19 01:27:23;;;;;;;18.00;7.05;;;7.50;99.90;;;;;;5054228;28;20127;-79
2021/12/19 01:29:49;;;;;;;17.98;7.18;;;7.50;99.90;;;;;;5035529;28;20049;-80
2021/12/19 01:32:14;;;;;;;16.25;7.25;;;7.50;99.90;;;;;;5053921;28;20435;-80
2021/12/19 01:34:40;;;;;;;16.27;7.28;;;8.50;99.90;;;;;;5053994;28;20474;-80
2021/12/19 01:37:06;;;;;;;13.40;6.05;;;8.00;99.90;;;;;;5053954;28;20127;-80
2021/12/19 01:39:31;;;;;;;15.30;5.85;;;7.60;99.90;;;;;;5019507;28;20094;-79
2021/12/19 01:41:58;;;;;;;15.93;5.95;;;7.60;99.90;;;;;;5035840;28;20138;-80
2021/12/19 01:44:25;;;;;;;13.32;5.47;;;7.50;99.90;;;;;;5053895;28;20041;-79
2021/12/19 01:46:51;;;;;;;10.32;4.18;;;7.50;99.90;;;;;;5053285;28;20396;-79
2021/12/19 01:49:20;;;;;;;13.68;3.78;;;7.50;99.90;;;;;;5053442;28;20045;-80
2021/12/19 01:51:47;;;;;;;11.52;3.08;;;7.50;99.90;;;;;;5053538;28;20476;-79
2021/12/19 01:54:13;;;;;;;8.73;2.60;;;7.50;99.90;;;;;;5035608;28;20052;-76
2021/12/19 01:56:39;;;;;;;10.10;2.40;;;7.50;99.90;;;;;;5053695;28;20037;-77
2021/12/19 01:59:07;;;;;;;5.22;1.67;;;7.50;99.90;;;;;;5053672;28;20048;-79
2021/12/19 02:01:51;;;;;;;8.40;2.42;;;7.60;99.90;;;;;;5052976;28;20045;-80
2021/12/19 02:04:19;;;;;;;5.90;2.08;;;7.40;99.90;;;;;;5053657;28;20131;-78
2021/12/19 02:06:45;;;;;;;7.32;2.40;;;7.40;99.90;;;;;;5035434;28;20053;-78
2021/12/19 02:09:11;;;;;;;5.88;1.90;;;7.40;99.90;;;;;;5034996;28;20052;-78
2021/12/19 02:11:40;;;;;;;10.82;2.22;;;7.30;99.90;;;;;;5035111;28;20056;-79
2021/12/19 02:14:08;;;;;;;8.40;2.30;;;7.30;99.90;;;;;;5053229;28;20492;-80
2021/12/19 02:16:36;;;;;;;6.00;2.00;;;7.30;99.90;;;;;;5053335;28;20396;-79
2021/12/19 02:19:04;;;;;;;10.68;2.28;;;7.30;99.90;;;;;;5052593;28;20056;-80
2021/12/19 02:21:30;;;;;;;5.18;1.65;;;7.20;99.90;;;;;;5035956;28;20049;-80
2021/12/19 02:24:01;;;;;;;5.90;1.90;;;8.00;99.90;;;;;;5035330;28;20044;-79
2021/12/19 02:26:26;;;;;;;5.00;1.65;;;7.20;99.90;;;;;;5053387;28;20041;-80
2021/12/19 02:28:52;;;;;;;6.78;1.73;;;7.20;99.90;;;;;;5053267;28;20048;-80
2021/12/19 02:31:19;;;;;;;4.82;1.25;;;7.20;99.90;;;;;;5035448;28;20053;-79
2021/12/19 02:33:58;;;;;;;3.92;1.30;;;7.10;99.90;;;;;;5034931;28;20141;-78
2021/12/19 02:36:39;;;;;;;7.00;1.42;;;7.10;99.90;;;;;;5053102;28;20037;-80
2021/12/19 02:50:19;;;;;;;2.15;0.63;;;7.00;99.90;;;;;;4971694;28;20077;-80
2021/12/19 02:52:46;;;;;;;2.55;0.63;;;7.40;99.90;;;;;;4956228;28;20086;-79
2021/12/19 02:55:14;;;;;;;1.13;0.50;;;6.90;99.90;;;;;;4972311;28;20093;-80
2021/12/19 02:57:40;;;;;;;1.23;0.40;;;6.90;99.90;;;;;;4971945;28;20615;-78
2021/12/19 03:00:12;;;;;;;1.30;0.50;;;6.90;99.90;;;;;;4972208;28;20120;-79
2021/12/19 03:02:37;;;;;;;1.95;0.70;;;6.90;99.90;;;;;;4956291;28;20093;-79
2021/12/19 03:05:04;;;;;;;1.70;0.77;;;6.90;99.90;;;;;;4971620;28;20506;-79
2021/12/19 03:07:30;;;;;;;0.98;0.52;;;6.90;99.90;;;;;;4971823;28;20146;-80
2021/12/19 03:17:59;;;;;;;3.33;1.00;;;6.90;99.90;;;;;;4975569;28;20055;-80
2021/12/19 03:20:30;;;;;;;4.72;1.25;;;6.80;99.90;;;;;;4975902;28;20147;-79
2021/12/19 03:22:58;;;;;;;4.03;1.00;;;6.80;99.90;;;;;;4959292;28;20082;-79
2021/12/19 03:25:24;;;;;;;4.00;1.25;;;6.90;99.90;;;;;;4986438;28;20061;-78
2021/12/19 03:27:50;;;;;;;3.72;1.20;;;7.10;99.90;;;;;;5056681;28;20047;-76
2021/12/19 03:30:17;;;;;;;2.97;1.00;;;7.60;99.90;;;;;;5056764;28;20124;-78
2021/12/19 03:32:43;;;;;;;3.50;1.50;;;6.90;99.90;;;;;;5056663;28;20041;-78
2021/12/19 03:35:09;;;;;;;3.10;0.90;;;6.80;99.90;;;;;;5056571;28;20120;-78
2021/12/19 03:37:35;;;;;;;1.95;0.80;;;6.80;99.90;;;;;;5055899;28;20033;-80
2021/12/19 03:40:11;;;;;;;2.50;1.00;;;6.80;99.90;;;;;;5056082;28;20041;-77
2021/12/19 03:42:41;;;;;;;2.47;0.80;;;6.80;99.90;;;;;;5037970;28;20083;-79
2021/12/19 03:45:10;;;;;;;8.82;1.10;;;6.80;99.90;;;;;;5056287;28;20052;-80
2021/12/19 03:47:36;;;;;;;2.47;0.75;;;6.80;99.90;;;;;;5056464;28;20045;-77
2021/12/19 03:50:04;;;;;;;4.03;1.20;;;7.30;99.90;;;;;;5055759;28;20485;-79
2021/12/19 03:52:30;;;;;;;3.92;1.20;;;6.70;99.90;;;;;;5055390;28;20071;-78
2021/12/19 03:54:57;;;;;;;4.05;1.30;;;7.30;99.90;;;;;;5055702;28;20337;-79
2021/12/19 03:57:22;;;;;;;5.00;1.40;;;6.70;99.90;;;;;;5055565;28;20090;-80
2021/12/19 03:59:49;;;;;;;10.40;2.22;;;6.70;99.90;;;;;;5037759;28;20045;-79
2021/12/19 04:02:28;;;;;;;6.28;1.88;;;6.70;99.90;;;;;;5054699;28;20048;-79
2021/12/19 04:04:56;;;;;;;6.20;1.75;;;6.70;99.90;;;;;;5055691;28;20064;-79
2021/12/19 04:07:22;;;;;;;6.22;1.52;;;6.80;99.90;;;;;;5037583;28;20041;-79
2021/12/19 04:09:49;;;;;;;6.43;1.75;;;6.70;99.90;;;;;;5054969;28;20053;-79
2021/12/19 04:12:15;;;;;;;4.53;1.58;;;6.80;99.90;;;;;;5056289;28;20037;-79
2021/12/19 04:14:41;;;;;;;7.35;1.70;;;6.70;99.90;;;;;;5055510;28;20087;-79
2021/12/19 04:17:07;;;;;;;5.10;1.48;;;7.00;99.90;;;;;;5055386;28;20088;-79
2021/12/19 04:19:33;;;;;;;4.70;1.50;;;6.80;99.90;;;;;;5055063;28;20084;-79
2021/12/19 04:21:59;;;;;;;5.93;1.60;;;6.80;99.90;;;;;;5055120;28;20052;-80
2021/12/19 04:24:26;;;;;;;6.05;1.58;;;6.80;99.90;;;;;;5054405;28;20053;-79
2021/12/19 04:26:53;;;;;;;7.88;1.90;;;7.40;99.90;;;;;;5055032;28;20041;-79
2021/12/19 04:29:19;;;;;;;7.25;1.75;;;6.80;99.90;;;;;;5054218;28;20055;-78
2021/12/19 04:31:44;;;;;;;11.68;2.35;;;6.80;99.90;;;;;;5055329;28;20044;-78
2021/12/19 04:34:12;;;;;;;9.50;2.50;;;6.80;99.90;;;;;;5054864;28;20410;-77
2021/12/19 04:36:41;;;;;;;8.70;2.40;;;6.80;99.90;;;;;;5054741;28;20056;-78
2021/12/19 05:00:18;;;;;;;13.45;3.92;;;7.00;99.90;;;;;;5054366;28;20397;-78
2021/12/19 05:03:05;;;;;;;18.50;4.38;;;6.90;99.90;;;;;;5054414;28;20393;-76
2021/12/19 05:05:57;;;;;;;13.95;4.50;;;7.60;99.90;;;;;;5054310;28;20055;-78
2021/12/19 05:16:40;;;;;;;12.52;4.38;;;7.10;99.90;;;;;;5054292;28;20052;-78
2021/12/19 05:19:17;;;;;;;22.98;5.00;;;7.20;99.90;;;;;;5043994;28;20064;-78
2021/12/19 05:21:43;;;;;;;20.00;5.50;;;7.00;99.90;;;;;;5072058;28;20048;-79
2021/12/19 05:26:44;;;;;;;16.75;5.28;;;7.00;99.90;;;;;;5074103;28;20427;-78
2021/12/19 05:29:10;;;;;;;14.52;5.07;;;7.00;99.90;;;;;;5055629;28;20415;-78
2021/12/19 05:31:37;;;;;;;20.88;5.20;;;7.00;99.90;;;;;;5056189;28;20432;-78
2021/12/19 05:34:03;;;;;;;15.80;5.10;;;7.00;99.90;;;;;;5073717;28;20498;-78
2021/12/19 05:47:07;;;;;;;17.10;5.90;;;7.10;99.90;;;;;;5055800;28;20055;-78
2021/12/19 05:49:34;;;;;;;15.30;5.43;;;7.10;99.90;;;;;;5073605;28;20396;-77
2021/12/19 05:52:00;;;;;;;17.17;6.30;;;7.10;99.90;;;;;;5073628;28;20381;-78
2021/12/19 05:54:26;;;;;;;21.20;5.80;;;7.50;99.90;;;;;;5073688;28;20055;-78
2021/12/19 05:56:52;;;;;;;17.52;5.80;;;7.10;99.90;;;;;;5073675;28;20395;-79
2021/12/19 05:59:18;;;;;;;19.30;5.93;;;7.10;99.90;;;;;;5055036;28;20051;-78
2021/12/19 06:01:46;;;;;;;22.63;6.75;;;7.10;99.90;;;;;;5054956;28;20049;-78
2021/12/19 06:04:12;;;;;;;19.60;6.78;;;7.10;99.90;;;;;;5073599;28;20090;-79
2021/12/19 06:06:37;;;;;;;21.60;6.93;;;7.60;99.90;;;;;;5038825;28;20486;-78
2021/12/19 06:09:04;;;;;;;19.75;6.18;;;7.30;99.90;;;;;;5073383;28;20377;-75
2021/12/19 06:11:29;;;;;;;15.93;6.10;;;7.10;99.90;;;;;;5073113;28;20503;-79
2021/12/19 06:13:55;;;;;;;18.55;6.45;;;7.10;99.90;;;;;;5073271;28;20040;-78
2021/12/19 06:16:21;;;;;;;20.27;7.03;;;7.10;99.90;;;;;;5054800;28;20041;-78
2021/12/19 06:18:47;;;;;;;17.70;6.43;;;7.10;99.90;;;;;;5055081;28;20130;-78
2021/12/19 06:21:13;;;;;;;17.60;5.45;;;7.60;99.90;;;;;;5073429;28;20182;-78
2021/12/19 06:23:39;;;;;;;18.42;6.60;;;7.10;99.90;;;;;;5073054;28;20080;-78
2021/12/19 06:26:05;;;;;;;19.38;6.10;;;7.10;99.90;;;;;;5073387;28;20136;-78
2021/12/19 06:28:31;;;;;;;16.83;5.57;;;7.10;99.90;;;;;;5054985;28;20110;-78
2021/12/19 06:30:56;;;;;;;20.15;5.82;;;7.10;99.90;;;;;;5073131;28;20048;-78
2021/12/19 06:33:22;;;;;;;17.67;6.28;;;7.10;99.90;;;;;;5072936;28;20086;-77
2021/12/19 06:35:49;;;;;;;17.27;5.78;;;7.10;99.90;;;;;;5072927;28;20094;-78
2021/12/19 06:38:15;;;;;;;21.10;6.72;;;7.10;99.90;;;;;;5072954;28;20037;-78
2021/12/19 06:40:42;;;;;;;16.05;6.18;;;7.10;99.90;;;;;;5073171;28;20059;-78
2021/12/19 06:43:08;;;;;;;25.30;6.63;;;7.10;99.90;;;;;;5072661;28;20476;-77
2021/12/19 06:45:33;;;;;;;16.48;5.90;;;7.10;99.90;;;;;;5072833;28;20082;-78
2021/12/19 06:47:59;;;;;;;19.35;5.90;;;7.00;99.90;;;;;;5054637;28;20048;-76
2021/12/19 06:50:25;;;;;;;17.80;5.65;;;7.80;99.90;;;;;;5073010;28;20395;-79
2021/12/19 06:52:51;;;;;;;17.55;4.78;;;7.00;99.90;;;;;;5076933;28;20499;-78
2021/12/19 06:55:17;;;;;;;17.73;4.85;;;7.00;99.90;;;;;;5058784;28;20052;-78
2021/12/19 06:57:43;;;;;;;14.90;4.25;;;7.00;99.90;;;;;;5076593;28;20115;-76
2021/12/19 07:00:15;;;;;;;13.82;4.15;;;7.00;99.90;;;;;;5076587;28;20036;-78
2021/12/19 07:02:41;;;;;;;15.98;4.47;;;7.00;99.90;;;;;;5058601;28;20055;-78
2021/12/19 07:05:07;;;;;;;17.73;4.05;;;8.10;99.90;;;;;;5076473;28;20036;-76
2021/12/19 07:07:33;;;;;;;11.27;4.03;;;7.00;99.90;;;;;;5058886;28;20052;-78
2021/12/19 07:09:59;;;;;;;14.43;4.05;;;7.00;99.90;;;;;;5058551;28;20052;-77
2021/12/19 07:12:26;;;;;;;11.43;3.97;;;7.00;99.90;;;;;;5076387;28;20173;-78
2021/12/19 07:14:54;;;;;;;12.48;3.92;;;7.00;99.90;;;;;;5076372;28;20049;-78
2021/12/19 07:17:20;;;;;;;13.43;3.17;;;7.00;99.90;;;;;;5076598;28;20094;-77
2021/12/19 07:19:46;;;;;;;12.02;3.55;;;7.40;99.90;;;;;;5057416;28;20053;-77
2021/12/19 07:22:12;;;;;;;15.05;4.28;;;6.90;99.90;;;;;;5076501;28;20036;-78
2021/12/19 07:24:38;;;;;;;11.02;3.10;;;6.90;99.90;;;;;;5058662;28;20496;-79
2021/12/19 07:27:03;;;;;;;11.45;3.17;;;6.90;99.90;;;;;;5076142;28;20083;-78
2021/12/19 07:29:30;;;;;;;8.75;2.10;;;6.90;99.90;;;;;;5076336;28;20041;-75
2021/12/19 07:31:57;;;;;;;15.95;3.03;;;6.90;99.90;;;;;;5057941;28;20048;-78
2021/12/19 07:34:29;;;;;;;11.90;2.80;;;6.90;99.90;;;;;;5076414;28;20115;-79
2021/12/19 07:36:55;;;;;;;12.82;3.35;;;6.90;99.90;;;;;;5075990;28;20083;-76
2021/12/19 07:39:37;;;;;;;11.65;3.08;;;6.90;99.90;;;;;;5076010;28;20079;-77
2021/12/19 07:42:06;;;;;;;18.50;3.22;;;7.30;99.90;;;;;;5076152;28;20040;-78
2021/12/19 07:44:32;;;;;;;12.93;2.88;;;6.90;99.90;;;;;;5058069;28;20476;-79
2021/12/19 07:46:58;;;;;;;17.27;2.92;;;7.00;99.90;;;;;;5076061;28;20079;-78
2021/12/19 07:49:24;;;;;;;10.75;2.75;;;7.00;99.90;;;;;;5057490;28;20080;-78
2021/12/19 07:51:49;;;;;;;14.95;3.25;;;7.00;99.90;;;;;;5040576;28;20087;-77
2021/12/19 07:54:15;;;;;;;11.25;3.33;;;7.00;99.90;;;;;;5075713;28;20040;-78
2021/12/19 07:56:41;;;;;;;10.52;2.60;;;7.00;99.90;;;;;;5075836;28;20044;-75
2021/12/19 07:59:06;;;;;;;9.80;2.47;;;6.90;99.90;;;;;;5057464;28;20400;-74
2021/12/19 08:01:33;;;;;;;10.65;2.15;;;7.00;99.90;;;;;;5075444;28;20045;-78
2021/12/19 08:03:58;;;;;;;11.38;2.85;;;7.70;99.90;;;;;;5075737;28;20098;-79
2021/12/19 08:06:24;;;;;;;11.35;2.90;;;7.00;99.90;;;;;;5075504;28;20044;-77
2021/12/19 08:08:53;;;;;;;9.90;2.08;;;7.00;99.90;;;;;;5056255;28;20404;-75
2021/12/19 08:14:04;;;;;;;17.15;2.83;;;7.00;99.90;;;;;;5055586;28;20052;-78
2021/12/19 08:16:30;;;;;;;13.48;2.67;;;7.20;99.90;;;;;;5037199;28;20183;-75
2021/12/19 08:18:56;;;;;;;11.88;3.08;;;7.50;99.90;;;;;;5055023;28;20124;-78
2021/12/19 08:21:21;;;;;;;14.50;2.80;;;7.00;99.90;;;;;;5055301;28;20519;-76
2021/12/19 08:23:47;;;;;;;16.05;2.83;;;7.00;99.90;;;;;;5054902;28;20047;-77
2021/12/19 08:26:14;;;;;;;15.13;3.15;;;7.00;99.90;;;;;;5055256;28;20072;-79
2021/12/19 08:28:39;;;;;;;14.88;3.38;;;7.00;99.90;;;;;;5055246;28;20033;-79
2021/12/19 08:31:05;;;;;;;10.90;2.58;;;7.00;99.90;;;;;;5037001;28;20056;-79
2021/12/19 08:33:31;;;;;;;13.63;3.13;;;7.00;99.90;;;;;;5037100;28;20037;-77
2021/12/19 08:35:59;;;;;;;9.45;2.03;;;7.00;99.90;;;;;;5055061;28;20045;-76
2021/12/19 08:38:25;;;;;;;6.50;1.58;;;7.00;99.90;;;;;;5036893;28;20045;-77
2021/12/19 08:40:51;;;;;;;10.50;2.00;;;7.00;99.90;;;;;;5054852;28;20041;-79
2021/12/19 08:43:19;;;;;;;12.77;2.10;;;7.20;99.90;;;;;;5055053;28;20094;-75
2021/12/19 08:45:45;;;;;;;11.15;2.25;;;7.10;99.90;;;;;;5036896;28;20139;-77
2021/12/19 08:48:11;;;;;;;9.68;2.45;;;7.10;99.90;;;;;;5053728;28;20045;-76
2021/12/19 08:50:37;;;;;;;8.27;2.38;;;7.10;99.90;;;;;;5054347;28;20045;-75
2021/12/19 08:53:03;;;;;;;15.48;3.00;;;7.10;99.90;;;;;;5054889;28;20370;-78
2021/12/19 08:55:29;;;;;;;7.70;1.83;;;7.60;99.90;;;;;;5054382;28;20102;-76
2021/12/19 08:57:55;;;;;;;7.47;2.08;;;7.10;99.90;;;;;;5054452;28;20408;-77
2021/12/19 09:00:22;;;;;;;8.00;1.83;;;7.10;99.90;;;;;;5054261;28;20045;-79
2021/12/19 09:02:51;;;;;;;7.25;2.08;;;7.10;99.90;;;;;;5054643;28;20060;-80
2021/12/19 09:05:18;;;;;;;5.82;1.67;;;7.40;99.90;;;;;;5036590;28;20053;-80
2021/12/19 09:07:44;;;;;;;11.18;1.75;;;7.20;99.90;;;;;;5054556;28;20086;-77
2021/12/19 09:10:11;;;;;;;13.95;2.17;;;7.20;99.90;;;;;;5035949;28;20053;-79
2021/12/19 09:12:36;;;;;;;8.48;1.70;;;7.90;99.90;;;;;;5054154;28;20037;-76
2021/12/19 09:15:04;;;;;;;9.57;1.80;;;7.20;99.90;;;;;;5053909;28;20055;-80
2021/12/19 09:17:30;;;;;;;9.32;2.35;;;7.20;99.90;;;;;;5035800;28;20500;-78
2021/12/19 09:19:56;;;;;;;13.82;2.70;;;7.20;99.90;;;;;;5053143;28;20083;-78
2021/12/19 09:22:21;;;;;;;9.70;2.00;;;7.20;99.90;;;;;;5053435;28;20077;-79
2021/12/19 09:24:47;;;;;;;13.63;2.70;;;7.30;99.90;;;;;;5052999;28;20447;-78
2021/12/19 09:27:13;;;;;;;9.55;2.25;;;7.30;99.90;;;;;;5053041;28;20072;-77
2021/12/19 09:29:39;;;;;;;13.50;2.67;;;7.30;99.90;;;;;;5053233;28;20100;-79
2021/12/19 09:32:05;;;;;;;9.95;3.00;;;7.20;99.90;;;;;;5034639;28;20473;-79
2021/12/19 09:34:34;;;;;;;11.20;3.03;;;7.20;99.90;;;;;;5035016;28;20045;-78
2021/12/19 09:37:00;;;;;;;13.15;2.75;;;7.30;99.90;;;;;;5053045;28;20041;-76
2021/12/19 09:39:26;;;;;;;18.40;2.92;;;7.30;99.90;;;;;;5053170;28;20112;-80
2021/12/19 09:41:56;;;;;;;16.83;2.85;;;7.30;99.90;;;;;;5034629;28;20048;-77
2021/12/19 09:44:22;;;;;;;12.07;2.65;;;7.30;99.90;;;;;;5052766;28;20086;-77
2021/12/19 09:46:49;;;;;;;7.78;1.90;;;7.40;99.90;;;;;;5052977;28;20120;-79
2021/12/19 09:49:17;;;;;;;9.68;2.55;;;8.00;99.90;;;;;;5052946;28;20044;-79
2021/12/19 09:51:44;;;;;;;9.82;2.40;;;8.00;99.90;;;;;;5053008;28;20091;-79
2021/12/19 09:54:11;;;;;;;10.90;2.70;;;7.40;99.90;;;;;;5052935;28;20115;-80
2021/12/19 09:56:37;;;;;;;8.77;2.20;;;8.00;99.90;;;;;;5052828;28;20053;-80
2021/12/19 09:59:09;;;;;;;12.82;2.80;;;7.40;99.90;;;;;;5051993;28;20404;-77
2021/12/19 10:01:35;;;;;;;10.48;2.00;;;7.50;99.90;;;;;;5052449;28;20052;-80
2021/12/19 10:04:00;;;;;;;12.23;2.50;;;7.50;99.90;;;;;;5052723;28;20093;-80
2021/12/19 10:06:28;;;;;;;12.68;2.58;;;7.50;99.90;;;;;;5034794;28;20428;-79
2021/12/19 10:09:09;;;;;;;10.10;2.38;;;8.20;99.90;;;;;;5052702;28;20040;-81
2021/12/19 10:14:32;;;;;;;10.15;2.67;;;7.90;99.90;;;;;;5051797;28;20048;-80
2021/12/19 10:17:00;;;;;;;11.07;1.92;;;7.60;99.90;;;;;;5034216;28;20052;-80
2021/12/19 10:19:45;;;;;;;16.17;2.58;;;7.50;99.90;;;;;;5014982;28;1083485;-79
2021/12/19 10:22:30;;;;;;;13.40;2.72;;;7.80;99.90;;;;;;5053371;28;20110;-81
2021/12/19 10:25:18;;;;;;;12.88;2.47;;;7.50;99.90;;;;;;5034971;28;20150;-80
2021/12/19 10:27:48;;;;;;;16.63;2.92;;;7.50;99.90;;;;;;5034901;28;20057;-81
2021/12/19 10:30:32;;;;;;;15.40;2.45;;;7.50;99.90;;;;;;5051512;28;20044;-81
2021/12/19 10:33:03;;;;;;;5.63;1.42;;;7.50;99.90;;;;;;5053093;28;20045;-79
2021/12/19 10:35:35;;;;;;;11.27;1.98;;;7.50;99.90;;;;;;5053008;28;20166;-79
2021/12/19 10:38:03;;;;;;;10.63;1.67;;;7.50;99.90;;;;;;5053184;28;20033;-79
2021/12/19 10:40:29;;;;;;;10.07;2.00;;;8.00;99.90;;;;;;5053080;28;20079;-79
2021/12/19 10:43:02;;;;;;;8.65;1.65;;;7.80;99.90;;;;;;5035193;28;20040;-77
2021/12/19 10:45:34;;;;;;;8.60;1.70;;;7.60;99.90;;;;;;5052716;28;20090;-78
2021/12/19 10:48:19;;;;;;;15.60;2.60;;;7.60;99.90;;;;;;5053119;28;20045;-80
2021/12/19 10:50:54;;;;;;;10.25;1.92;;;7.60;99.90;;;;;;5034977;28;20055;-79
2021/12/19 10:53:34;;;;;;;7.00;1.67;;;8.10;99.90;;;;;;5035688;28;20079;-78
2021/12/19 10:56:01;;;;;;;7.22;1.48;;;7.60;99.90;;;;;;5052878;28;20041;-74
2021/12/19 10:58:37;;;;;;;11.52;2.00;;;7.60;99.90;;;;;;5053069;28;20078;-79
2021/12/19 11:01:08;;;;;;;12.02;1.73;;;7.60;99.90;;;;;;5052625;28;20049;-79
2021/12/19 11:03:35;;;;;;;7.03;1.42;;;7.70;99.90;;;;;;5052849;28;20072;-80
2021/12/19 11:06:12;;;;;;;14.00;1.95;;;7.70;99.90;;;;;;5034919;28;20511;-79
2021/12/19 11:08:39;;;;;;;15.23;2.35;;;7.70;99.90;;;;;;5052623;28;20050;-80
2021/12/19 11:11:04;;;;;;;10.73;1.90;;;8.40;99.90;;;;;;5052673;28;20049;-79
2021/12/19 11:13:30;;;;;;;16.85;4.10;;;7.70;99.90;;;;;;5052519;28;20132;-76
2021/12/19 11:15:56;;;;;;;10.35;2.00;;;7.80;99.90;;;;;;5052896;28;20129;-80
2021/12/19 11:18:22;;;;;;;9.60;1.75;;;7.80;99.90;;;;;;5052362;28;20140;-80
2021/12/19 11:20:48;;;;;;;15.27;3.08;;;7.80;99.90;;;;;;5034774;28;20049;-75
2021/12/19 11:23:14;;;;;;;15.48;2.83;;;7.80;99.90;;;;;;5048070;28;20052;-73
2021/12/19 11:25:39;;;;;;;17.55;3.38;;;7.80;99.90;;;;;;5064540;28;20044;-78
2021/12/19 11:28:05;;;;;;;12.13;2.92;;;8.30;99.90;;;;;;5072515;28;20106;-79
2021/12/19 11:30:31;;;;;;;9.60;2.30;;;7.80;99.90;;;;;;5053670;28;20084;-72
2021/12/19 11:33:18;;;;;;;9.20;2.22;;;7.90;99.90;;;;;;5071667;28;20045;-80
2021/12/19 11:35:47;;;;;;;8.15;1.98;;;7.90;99.90;;;;;;5072375;28;20056;-77
2021/12/19 11:38:17;;;;;;;13.90;2.65;;;7.90;99.90;;;;;;5074834;28;20429;-77
2021/12/19 11:40:43;;;;;;;6.82;2.05;;;8.50;99.90;;;;;;5075976;28;20068;-79
2021/12/19 11:43:12;;;;;;;5.88;1.50;;;7.90;99.90;;;;;;5057878;28;20040;-76
2021/12/19 11:45:46;;;;;;;6.63;1.63;;;8.60;99.90;;;;;;5057945;28;20041;-79
2021/12/19 11:48:22;;;;;;;6.72;1.60;;;7.90;99.90;;;;;;5075751;28;20048;-80
2021/12/19 11:50:52;;;;;;;8.82;1.48;;;7.90;99.90;;;;;;5057714;28;20373;-80
2021/12/19 11:53:43;;;;;;;13.55;2.15;;;8.10;99.90;;;;;;5068355;28;20041;-79
2021/12/19 11:56:10;;;;;;;13.52;2.17;;;8.00;99.90;;;;;;5067818;28;20066;-76
2021/12/19 11:58:55;;;;;;;10.88;1.50;;;8.00;99.90;;;;;;5072898;28;20045;-79
2021/12/19 12:01:33;;;;;;;11.77;2.60;;;8.00;99.90;;;;;;5070428;28;20052;-74
2021/12/19 12:04:12;;;;;;;18.80;3.47;;;8.00;99.90;;;;;;5036556;28;20052;-78
2021/12/19 12:06:52;;;;;;;15.90;2.28;;;8.00;99.90;;;;;;5055228;28;20048;-77
2021/12/19 12:09:25;;;;;;;13.80;2.65;;;8.00;99.90;;;;;;5053971;28;20055;-76
2021/12/19 12:12:10;;;;;;;12.82;2.80;;;8.00;99.90;;;;;;5064900;28;20413;-76
2021/12/19 12:14:56;;;;;;;9.95;1.65;;;8.00;99.90;;;;;;5034899;28;20053;-76
2021/12/19 12:17:37;;;;;;;7.32;1.90;;;8.70;99.90;;;;;;5065518;28;20044;-79
2021/12/19 12:20:18;;;;;;;11.30;2.70;;;8.20;99.90;;;;;;5051776;28;20048;-77
2021/12/19 12:22:59;;;;;;;7.82;1.85;;;8.00;99.90;;;;;;5050166;28;20052;-75
2021/12/19 12:25:26;;;;;;;10.35;1.88;;;9.00;99.90;;;;;;5074793;28;20048;-78
2021/12/19 12:28:05;;;;;;;10.27;1.88;;;9.30;99.90;;;;;;5057016;28;20048;-75
2021/12/19 12:30:39;;;;;;;10.90;2.08;;;8.00;99.90;;;;;;5074684;28;20048;-78
2021/12/19 12:33:07;;;;;;;8.25;1.58;;;8.30;99.90;;;;;;5067714;28;20404;-78
2021/12/19 12:35:37;;;;;;;11.63;1.70;;;8.00;99.90;;;;;;5074814;28;20048;-75
2021/12/19 12:38:05;;;;;;;10.75;1.70;;;7.90;99.90;;;;;;5074414;28;20096;-78
2021/12/19 12:40:43;;;;;;;10.20;1.67;;;8.00;99.90;;;;;;5074768;28;20433;-77
2021/12/19 12:43:11;;;;;;;14.35;1.92;;;8.00;99.90;;;;;;5056705;28;20053;-78
2021/12/19 12:45:56;;;;;;;10.75;1.95;;;8.00;99.90;;;;;;5074791;28;20094;-78
2021/12/19 12:48:40;;;;;;;7.00;1.55;;;8.00;99.90;;;;;;5073814;28;20052;-75
2021/12/19 12:51:09;;;;;;;8.50;1.75;;;8.00;99.90;;;;;;5056493;28;20048;-78
2021/12/19 12:53:38;;;;;;;11.40;1.40;;;8.30;99.90;;;;;;5074003;28;20098;-77
2021/12/19 12:56:14;;;;;;;8.48;1.48;;;8.00;99.90;;;;;;5056026;28;20499;-77
2021/12/19 12:58:47;;;;;;;7.60;1.75;;;7.90;99.90;;;;;;5074483;28;20044;-75
2021/12/19 13:01:21;;;;;;;10.43;1.80;;;7.90;99.90;;;;;;5057084;28;20036;-78
2021/12/19 13:03:54;;;;;;;14.32;1.23;;;7.40;99.90;;;;;;5056150;28;20048;-78
2021/12/19 13:06:43;;;;;;;7.88;1.30;;;7.90;99.90;;;;;;5056416;28;20098;-78
2021/12/19 13:09:22;;;;;;;4.75;1.05;;;7.80;99.90;;;;;;5073880;28;20048;-77
2021/12/19 13:12:18;;;;;;;4.38;1.05;;;7.80;99.90;;;;;;5074170;28;20044;-77
2021/12/19 13:14:49;;;;;;;4.65;1.30;;;7.90;99.90;;;;;;5046189;28;20056;-78
2021/12/19 13:17:21;;;;;;;4.65;1.20;;;7.90;99.90;;;;;;5073910;28;20507;-78
2021/12/19 13:19:47;;;;;;;10.63;1.58;;;7.90;99.90;;;;;;5056048;28;20068;-77
2021/12/19 13:22:20;;;;;;;8.55;1.52;;;7.90;99.90;;;;;;5072956;28;20404;-77
2021/12/19 13:24:47;;;;;;;5.15;1.13;;;7.90;99.90;;;;;;5055670;28;20377;-79
2021/12/19 13:27:19;;;;;;;6.32;1.33;;;8.00;99.90;;;;;;5073791;28;20446;-77
2021/12/19 13:29:58;;;;;;;5.87;1.77;;;7.90;99.90;;;;;;5073625;28;20106;-75
2021/12/19 13:32:40;;;;;;;6.80;1.25;;;7.90;99.90;;;;;;5073934;28;20090;-78
2021/12/19 13:35:08;;;;;;;;;;;7.90;99.90;;;;;;5074117;28;20048;-76
2021/12/19 13:37:45;;;;;;;13.10;1.40;;;7.90;99.90;;;;;;5073595;28;19920;-78
2021/12/19 13:40:13;;;;;;;8.75;1.27;;;7.90;99.90;;;;;;5055504;28;20118;-77
2021/12/19 13:42:49;;;;;;;10.35;1.92;;;7.90;99.90;;;;;;5073626;28;20131;-77
2021/12/19 13:45:24;;;;;;;7.00;1.75;;;8.00;99.90;;;;;;5073356;28;20040;-78
2021/12/19 13:47:50;;;;;;;7.55;1.50;;;8.00;99.90;;;;;;5055540;28;20045;-77
2021/12/19 13:50:16;;;;;;;14.80;2.00;;;8.00;99.90;;;;;;5073246;28;20051;-77
2021/12/19 13:52:42;;;;;;;7.93;1.67;;;8.00;99.90;;;;;;5073527;28;20032;-77
2021/12/19 13:55:10;;;;;;;16.60;3.17;;;7.90;99.90;;;;;;5073144;28;20102;-78
2021/12/19 13:57:36;;;;;;;8.85;2.25;;;8.00;99.90;;;;;;5073036;28;20036;-78
2021/12/19 14:00:05;;;;;;;11.52;2.95;;;8.00;99.90;;;;;;5073078;28;20044;-78
2021/12/19 14:02:39;;;;;;;9.68;2.47;;;8.00;99.90;;;;;;5055740;28;20389;-78
2021/12/19 14:05:51;;;;;;;6.68;1.73;;;8.30;99.90;;;;;;5073482;28;20040;-78
2021/12/19 14:08:23;;;;;;;15.18;1.67;;;8.00;99.90;;;;;;5052457;28;20067;-77
2021/12/19 14:11:01;;;;;;;;;;;8.00;99.90;;;;;;5073443;28;20551;-78
2021/12/19 14:13:34;;;;;;;10.27;2.47;;;8.00;99.90;;;;;;5054591;28;19950;-77